Wetterdaten: Woche 19.09.11 - 25.09.11 (KW38)
Datum Zeit Temp. Innen Temp. Aussen UV X Diff Temp. Feuchte Inne Feuchte Auss Sonnenschein Luftdruck Regen ab 0,1 Wind Sonnenschein T Regendauer Windben
19.09.2011 00:00 20,9 C 12,2 C 0,0 UV-I 0,0 C 55 % 86 % 0 % 1005,0 hPa 0,0 l/m 1,3 km/h (1 Bft) 0,00 h 0,00 h 3,1 km/h (1 Bft)
19.09.2011 01:00 20,8 C 11,9 C 0,0 UV-I 0,0 C 55 % 86 % 0 % 1004,8 hPa 0,0 l/m 0,4 km/h (0 Bft) 0,00 h 0,00 h 1,1 km/h (1 Bft)
19.09.2011 02:00 20,8 C 12,3 C 0,0 UV-I 0,0 C 55 % 87 % 0 % 1004,9 hPa 0,0 l/m 0,8 km/h (0 Bft) 0,00 h 0,00 h 1,3 km/h (1 Bft)
19.09.2011 03:00 20,8 C 12,3 C 0,0 UV-I 0,0 C 56 % 87 % 0 % 1005,2 hPa 0,0 l/m 0,5 km/h (0 Bft) 0,00 h 0,07 h 1,3 km/h (1 Bft)
19.09.2011 04:00 20,7 C 12,2 C 0,0 UV-I 0,0 C 56 % 88 % 0 % 1005,5 hPa 0,1 l/m 0,1 km/h (0 Bft) 0,00 h 0,47 h 0,3 km/h (0 Bft)
19.09.2011 05:00 20,7 C 12,1 C 0,0 UV-I 0,0 C 56 % 89 % 0 % 1005,8 hPa 0,0 l/m 0,0 km/h (0 Bft) 0,00 h 0,03 h 0,2 km/h (0 Bft)
19.09.2011 06:00 20,6 C 11,9 C 0,0 UV-I 0,0 C 57 % 90 % 0 % 1006,1 hPa 0,0 l/m 0,1 km/h (0 Bft) 0,00 h 0,00 h 0,7 km/h (0 Bft)
19.09.2011 07:00 20,6 C 11,9 C 0,0 UV-I 0,0 C 57 % 90 % 0 % 1007,1 hPa 0,0 l/m 0,0 km/h (0 Bft) 0,00 h 0,00 h 0,2 km/h (0 Bft)
19.09.2011 08:00 20,5 C 11,9 C 0,0 UV-I 0,3 C 57 % 91 % 8 % 1008,1 hPa 0,0 l/m 1,3 km/h (1 Bft) 0,00 h 0,00 h 2,7 km/h (1 Bft)
19.09.2011 09:00 20,7 C 12,3 C 0,2 UV-I 2,1 C 56 % 89 % 61 % 1009,1 hPa 0,0 l/m 3,5 km/h (1 Bft) 0,30 h 0,00 h 6,4 km/h (2 Bft)
19.09.2011 10:00 20,8 C 13,0 C 0,6 UV-I 3,2 C 56 % 87 % 89 % 1010,0 hPa 0,0 l/m 3,1 km/h (1 Bft) 0,80 h 0,00 h 5,1 km/h (1 Bft)
19.09.2011 11:00 21,0 C 14,4 C 1,6 UV-I 5,5 C 55 % 82 % 96 % 1010,8 hPa 0,0 l/m 4,4 km/h (1 Bft) 0,93 h 0,00 h 7,1 km/h (2 Bft)
19.09.2011 12:00 21,4 C 16,0 C 2,7 UV-I 5,8 C 55 % 76 % 100 % 1011,8 hPa 0,0 l/m 6,2 km/h (2 Bft) 1,00 h 0,00 h 9,4 km/h (2 Bft)
19.09.2011 13:00 22,1 C 17,2 C 3,8 UV-I 6,4 C 53 % 70 % 100 % 1012,8 hPa 0,0 l/m 6,2 km/h (2 Bft) 1,00 h 0,00 h 9,5 km/h (2 Bft)
19.09.2011 14:00 22,8 C 17,6 C 2,1 UV-I 3,6 C 51 % 67 % 82 % 1013,4 hPa 0,0 l/m 4,1 km/h (1 Bft) 0,60 h 0,00 h 7,4 km/h (2 Bft)
19.09.2011 15:00 23,6 C 18,6 C 3,6 UV-I 4,3 C 49 % 61 % 90 % 1013,9 hPa 0,0 l/m 5,9 km/h (2 Bft) 0,80 h 0,00 h 8,6 km/h (2 Bft)
19.09.2011 16:00 24,7 C 19,5 C 3,3 UV-I 5,1 C 47 % 58 % 100 % 1015,0 hPa 0,0 l/m 6,0 km/h (2 Bft) 1,00 h 0,00 h 9,1 km/h (2 Bft)
19.09.2011 17:00 24,8 C 19,3 C 1,3 UV-I 3,8 C 45 % 58 % 92 % 1015,5 hPa 0,0 l/m 5,2 km/h (1 Bft) 0,93 h 0,00 h 7,8 km/h (2 Bft)
19.09.2011 18:00 24,0 C 17,4 C 0,1 UV-I 0,1 C 47 % 65 % 2 % 1015,7 hPa 0,0 l/m 0,7 km/h (0 Bft) 0,00 h 0,00 h 1,2 km/h (1 Bft)
19.09.2011 19:00 23,3 C 16,6 C 0,0 UV-I 0,0 C 49 % 69 % 0 % 1016,2 hPa 0,0 l/m 0,3 km/h (0 Bft) 0,00 h 0,00 h 0,5 km/h (0 Bft)
19.09.2011 20:00 22,7 C 14,8 C 0,0 UV-I 0,0 C 51 % 74 % 0 % 1017,1 hPa 0,0 l/m 0,0 km/h (0 Bft) 0,00 h 0,00 h 0,0 km/h (0 Bft)
19.09.2011 21:00 22,2 C 13,3 C 0,0 UV-I 0,0 C 52 % 79 % 0 % 1018,1 hPa 0,0 l/m 0,0 km/h (0 Bft) 0,00 h 0,00 h 0,0 km/h (0 Bft)
19.09.2011 22:00 21,9 C 12,4 C 0,0 UV-I 0,0 C 53 % 83 % 0 % 1018,7 hPa 0,0 l/m 0,1 km/h (0 Bft) 0,00 h 0,00 h 0,0 km/h (0 Bft)
19.09.2011 23:00 21,6 C 11,8 C 0,0 UV-I 0,0 C 54 % 85 % 0 % 1018,9 hPa 0,0 l/m 0,0 km/h (0 Bft) 0,00 h 0,00 h 0,0 km/h (0 Bft)
20.09.2011 00:00 21,4 C 11,3 C 0,0 UV-I 0,0 C 54 % 87 % 0 % 1019,3 hPa 0,0 l/m 0,0 km/h (0 Bft) 0,00 h 0,00 h 0,1 km/h (0 Bft)
20.09.2011 01:00 21,2 C 11,7 C 0,0 UV-I 0,0 C 55 % 88 % 0 % 1019,7 hPa 0,0 l/m 0,4 km/h (0 Bft) 0,00 h 0,00 h 2,3 km/h (1 Bft)
20.09.2011 02:00 21,1 C 11,9 C 0,0 UV-I 0,0 C 55 % 87 % 0 % 1019,9 hPa 0,0 l/m 1,0 km/h (0 Bft) 0,00 h 0,00 h 3,1 km/h (1 Bft)
20.09.2011 03:00 21,0 C 11,8 C 0,0 UV-I 0,0 C 55 % 87 % 0 % 1020,0 hPa 0,0 l/m 0,6 km/h (0 Bft) 0,00 h 0,00 h 1,5 km/h (1 Bft)
20.09.2011 04:00 20,9 C 11,6 C 0,0 UV-I 0,0 C 55 % 87 % 0 % 1020,2 hPa 0,0 l/m 1,3 km/h (1 Bft) 0,00 h 0,00 h 3,3 km/h (1 Bft)
20.09.2011 05:00 20,8 C 11,7 C 0,0 UV-I 0,0 C 55 % 87 % 0 % 1020,1 hPa 0,0 l/m 1,9 km/h (1 Bft) 0,00 h 0,00 h 3,5 km/h (1 Bft)
20.09.2011 06:00 20,8 C 11,5 C 0,0 UV-I 0,0 C 55 % 88 % 0 % 1020,1 hPa 0,0 l/m 1,3 km/h (1 Bft) 0,00 h 0,00 h 3,0 km/h (1 Bft)
20.09.2011 07:00 20,8 C 11,6 C 0,0 UV-I 0,0 C 56 % 89 % 0 % 1020,5 hPa 0,0 l/m 1,6 km/h (1 Bft) 0,00 h 0,00 h 2,8 km/h (1 Bft)
20.09.2011 08:00 20,8 C 12,4 C 0,0 UV-I 0,1 C 56 % 88 % 2 % 1021,2 hPa 0,0 l/m 1,4 km/h (1 Bft) 0,00 h 0,00 h 2,9 km/h (1 Bft)
20.09.2011 09:00 20,9 C 13,7 C 0,1 UV-I 1,0 C 56 % 88 % 30 % 1021,9 hPa 0,0 l/m 2,9 km/h (1 Bft) 0,00 h 0,00 h 6,0 km/h (2 Bft)
20.09.2011 10:00 21,1 C 14,8 C 0,3 UV-I 1,2 C 56 % 87 % 36 % 1022,4 hPa 0,0 l/m 3,7 km/h (1 Bft) 0,00 h 0,00 h 7,3 km/h (2 Bft)
20.09.2011 11:00 21,4 C 16,3 C 0,8 UV-I 2,4 C 56 % 84 % 70 % 1022,7 hPa 0,0 l/m 3,8 km/h (1 Bft) 0,27 h 0,00 h 7,1 km/h (2 Bft)
20.09.2011 12:00 21,7 C 17,2 C 0,9 UV-I 2,2 C 56 % 79 % 64 % 1022,8 hPa 0,0 l/m 4,5 km/h (1 Bft) 0,00 h 0,00 h 7,7 km/h (2 Bft)
20.09.2011 13:00 21,8 C 17,3 C 0,3 UV-I 1,0 C 56 % 77 % 29 % 1022,9 hPa 0,0 l/m 2,9 km/h (1 Bft) 0,00 h 0,00 h 4,5 km/h (1 Bft)
20.09.2011 14:00 21,8 C 17,2 C 0,3 UV-I 0,8 C 56 % 77 % 22 % 1022,7 hPa 0,0 l/m 2,8 km/h (1 Bft) 0,00 h 0,00 h 5,4 km/h (1 Bft)
20.09.2011 15:00 21,8 C 17,2 C 0,1 UV-I 0,3 C 56 % 76 % 10 % 1022,4 hPa 0,0 l/m 3,3 km/h (1 Bft) 0,00 h 0,00 h 6,4 km/h (2 Bft)
20.09.2011 16:00 21,7 C 16,9 C 0,0 UV-I 0,1 C 56 % 77 % 3 % 1022,1 hPa 0,0 l/m 2,3 km/h (1 Bft) 0,00 h 0,00 h 5,0 km/h (1 Bft)
20.09.2011 17:00 21,7 C 17,0 C 0,2 UV-I 0,4 C 56 % 75 % 12 % 1022,2 hPa 0,0 l/m 5,3 km/h (1 Bft) 0,00 h 0,00 h 7,9 km/h (2 Bft)
20.09.2011 18:00 21,8 C 16,8 C 0,1 UV-I 0,2 C 56 % 75 % 5 % 1022,5 hPa 0,0 l/m 3,9 km/h (1 Bft) 0,00 h 0,00 h 6,7 km/h (2 Bft)
20.09.2011 19:00 21,7 C 16,1 C 0,0 UV-I 0,0 C 56 % 75 % 0 % 1022,3 hPa 0,0 l/m 1,9 km/h (1 Bft) 0,00 h 0,00 h 3,1 km/h (1 Bft)
20.09.2011 20:00 21,5 C 15,8 C 0,0 UV-I 0,0 C 56 % 76 % 0 % 1022,5 hPa 0,0 l/m 1,7 km/h (1 Bft) 0,00 h 0,00 h 4,8 km/h (1 Bft)
20.09.2011 21:00 21,4 C 15,6 C 0,0 UV-I 0,0 C 56 % 77 % 0 % 1022,5 hPa 0,0 l/m 1,0 km/h (0 Bft) 0,00 h 0,00 h 2,9 km/h (1 Bft)
20.09.2011 22:00 21,3 C 15,4 C 0,0 UV-I 0,0 C 57 % 79 % 0 % 1022,2 hPa 0,0 l/m 1,3 km/h (1 Bft) 0,00 h 0,00 h 3,3 km/h (1 Bft)
20.09.2011 23:00 21,2 C 15,4 C 0,0 UV-I 0,0 C 57 % 79 % 0 % 1022,3 hPa 0,0 l/m 1,4 km/h (1 Bft) 0,00 h 0,00 h 3,1 km/h (1 Bft)
21.09.2011 00:00 21,2 C 15,4 C 0,0 UV-I 0,0 C 57 % 78 % 0 % 1021,9 hPa 0,0 l/m 1,5 km/h (1 Bft) 0,00 h 0,00 h 3,9 km/h (1 Bft)
21.09.2011 01:00 21,3 C 15,2 C 0,0 UV-I 0,0 C 57 % 78 % 0 % 1021,9 hPa 0,0 l/m 1,5 km/h (1 Bft) 0,00 h 0,00 h 4,8 km/h (1 Bft)
21.09.2011 02:00 21,2 C 15,2 C 0,0 UV-I 0,0 C 57 % 78 % 0 % 1021,5 hPa 0,0 l/m 2,2 km/h (1 Bft) 0,00 h 0,00 h 4,0 km/h (1 Bft)
21.09.2011 03:00 21,2 C 15,1 C 0,0 UV-I 0,0 C 57 % 79 % 0 % 1021,0 hPa 0,0 l/m 0,8 km/h (0 Bft) 0,00 h 0,00 h 2,0 km/h (1 Bft)
21.09.2011 04:00 21,2 C 15,1 C 0,0 UV-I 0,0 C 57 % 79 % 0 % 1020,7 hPa 0,0 l/m 0,9 km/h (0 Bft) 0,00 h 0,00 h 2,8 km/h (1 Bft)
21.09.2011 05:00 21,2 C 15,1 C 0,0 UV-I 0,0 C 57 % 78 % 0 % 1020,2 hPa 0,0 l/m 1,3 km/h (1 Bft) 0,00 h 0,00 h 2,8 km/h (1 Bft)
21.09.2011 06:00 21,0 C 15,2 C 0,0 UV-I 0,0 C 57 % 78 % 0 % 1019,9 hPa 0,0 l/m 2,2 km/h (1 Bft) 0,00 h 0,00 h 4,0 km/h (1 Bft)
21.09.2011 07:00 21,1 C 15,2 C 0,0 UV-I 0,0 C 57 % 78 % 0 % 1019,9 hPa 0,0 l/m 1,5 km/h (1 Bft) 0,00 h 0,00 h 4,1 km/h (1 Bft)
21.09.2011 08:00 21,2 C 15,4 C 0,0 UV-I 0,0 C 57 % 78 % 0 % 1020,4 hPa 0,0 l/m 1,6 km/h (1 Bft) 0,00 h 0,00 h 3,9 km/h (1 Bft)
21.09.2011 09:00 21,2 C 15,6 C 0,0 UV-I 0,2 C 57 % 78 % 4 % 1020,3 hPa 0,0 l/m 1,5 km/h (1 Bft) 0,00 h 0,00 h 3,1 km/h (1 Bft)
21.09.2011 10:00 21,3 C 16,2 C 0,1 UV-I 0,7 C 57 % 77 % 21 % 1020,3 hPa 0,0 l/m 2,5 km/h (1 Bft) 0,00 h 0,00 h 4,7 km/h (1 Bft)
21.09.2011 11:00 21,6 C 16,8 C 0,2 UV-I 0,9 C 56 % 75 % 25 % 1020,3 hPa 0,0 l/m 2,9 km/h (1 Bft) 0,00 h 0,00 h 5,0 km/h (1 Bft)
21.09.2011 12:00 21,6 C 17,3 C 0,5 UV-I 1,1 C 55 % 70 % 32 % 1020,0 hPa 0,0 l/m 4,4 km/h (1 Bft) 0,00 h 0,00 h 6,5 km/h (2 Bft)
21.09.2011 13:00 21,5 C 18,5 C 1,2 UV-I 2,6 C 52 % 61 % 73 % 1019,4 hPa 0,0 l/m 6,5 km/h (2 Bft) 0,33 h 0,00 h 9,6 km/h (2 Bft)
21.09.2011 14:00 21,7 C 18,7 C 1,1 UV-I 2,0 C 51 % 60 % 58 % 1018,9 hPa 0,0 l/m 6,3 km/h (2 Bft) 0,00 h 0,00 h 10,0 km/h (2 Bft)
21.09.2011 15:00 21,8 C 19,1 C 1,1 UV-I 2,3 C 50 % 59 % 65 % 1018,5 hPa 0,0 l/m 5,9 km/h (2 Bft) 0,17 h 0,00 h 8,5 km/h (2 Bft)
21.09.2011 16:00 21,9 C 18,9 C 0,3 UV-I 1,0 C 50 % 60 % 28 % 1018,2 hPa 0,0 l/m 4,4 km/h (1 Bft) 0,00 h 0,00 h 6,9 km/h (2 Bft)
21.09.2011 17:00 21,8 C 18,5 C 0,0 UV-I 0,2 C 51 % 62 % 5 % 1017,9 hPa 0,0 l/m 3,2 km/h (1 Bft) 0,00 h 0,00 h 7,1 km/h (2 Bft)
21.09.2011 18:00 21,6 C 18,1 C 0,0 UV-I 0,0 C 52 % 65 % 0 % 1017,8 hPa 0,0 l/m 2,0 km/h (1 Bft) 0,00 h 0,00 h 4,4 km/h (1 Bft)
21.09.2011 19:00 21,4 C 17,6 C 0,0 UV-I 0,0 C 52 % 67 % 0 % 1017,8 hPa 0,0 l/m 1,6 km/h (1 Bft) 0,00 h 0,00 h 3,7 km/h (1 Bft)
21.09.2011 20:00 21,2 C 17,0 C 0,0 UV-I 0,0 C 54 % 71 % 0 % 1017,7 hPa 0,0 l/m 1,3 km/h (1 Bft) 0,00 h 0,00 h 3,7 km/h (1 Bft)
21.09.2011 21:00 21,1 C 17,0 C 0,0 UV-I 0,0 C 55 % 72 % 0 % 1017,7 hPa 0,0 l/m 2,5 km/h (1 Bft) 0,00 h 0,00 h 4,5 km/h (1 Bft)
21.09.2011 22:00 21,0 C 17,1 C 0,0 UV-I 0,0 C 55 % 72 % 0 % 1017,5 hPa 0,0 l/m 3,1 km/h (1 Bft) 0,00 h 0,00 h 5,7 km/h (1 Bft)
21.09.2011 23:00 20,9 C 16,8 C 0,0 UV-I 0,0 C 56 % 74 % 0 % 1017,3 hPa 0,0 l/m 4,1 km/h (1 Bft) 0,00 h 0,00 h 7,3 km/h (2 Bft)
22.09.2011 00:00 20,8 C 16,4 C 0,0 UV-I 0,0 C 57 % 77 % 0 % 1017,0 hPa 0,0 l/m 2,2 km/h (1 Bft) 0,00 h 0,00 h 4,7 km/h (1 Bft)
22.09.2011 01:00 20,7 C 16,2 C 0,0 UV-I 0,0 C 58 % 79 % 0 % 1017,0 hPa 0,0 l/m 2,4 km/h (1 Bft) 0,00 h 0,00 h 6,9 km/h (2 Bft)
22.09.2011 02:00 20,6 C 16,1 C 0,0 UV-I 0,0 C 59 % 80 % 0 % 1017,1 hPa 0,0 l/m 4,9 km/h (1 Bft) 0,00 h 0,00 h 8,8 km/h (2 Bft)
22.09.2011 03:00 20,5 C 15,1 C 0,0 UV-I 0,0 C 58 % 79 % 0 % 1017,1 hPa 0,0 l/m 1,7 km/h (1 Bft) 0,00 h 0,00 h 4,5 km/h (1 Bft)
22.09.2011 04:00 20,5 C 14,3 C 0,0 UV-I 0,0 C 57 % 81 % 0 % 1017,3 hPa 0,0 l/m 1,5 km/h (1 Bft) 0,00 h 0,00 h 3,6 km/h (1 Bft)
22.09.2011 05:00 20,3 C 13,3 C 0,0 UV-I 0,0 C 56 % 81 % 0 % 1017,5 hPa 0,0 l/m 1,0 km/h (0 Bft) 0,00 h 0,00 h 2,6 km/h (1 Bft)
22.09.2011 06:00 20,0 C 12,7 C 0,0 UV-I 0,0 C 56 % 84 % 0 % 1017,7 hPa 0,0 l/m 1,9 km/h (1 Bft) 0,00 h 0,00 h 3,9 km/h (1 Bft)
22.09.2011 07:00 19,7 C 12,5 C 0,0 UV-I 0,0 C 56 % 86 % 0 % 1017,8 hPa 0,0 l/m 2,0 km/h (1 Bft) 0,00 h 0,00 h 3,9 km/h (1 Bft)
22.09.2011 08:00 19,6 C 13,2 C 0,0 UV-I 0,5 C 58 % 86 % 14 % 1017,9 hPa 0,0 l/m 3,0 km/h (1 Bft) 0,00 h 0,00 h 5,1 km/h (1 Bft)
22.09.2011 09:00 19,6 C 14,2 C 0,1 UV-I 1,3 C 58 % 83 % 38 % 1018,2 hPa 0,0 l/m 4,5 km/h (1 Bft) 0,00 h 0,00 h 8,1 km/h (2 Bft)
22.09.2011 10:00 19,9 C 15,2 C 0,4 UV-I 2,2 C 58 % 81 % 63 % 1018,6 hPa 0,0 l/m 4,7 km/h (1 Bft) 0,20 h 0,00 h 8,3 km/h (2 Bft)
22.09.2011 11:00 20,1 C 15,8 C 0,5 UV-I 1,9 C 58 % 80 % 53 % 1018,8 hPa 0,0 l/m 5,1 km/h (1 Bft) 0,00 h 0,00 h 8,1 km/h (2 Bft)
22.09.2011 12:00 20,3 C 16,3 C 0,8 UV-I 2,0 C 58 % 77 % 56 % 1019,2 hPa 0,0 l/m 5,2 km/h (1 Bft) 0,00 h 0,00 h 9,2 km/h (2 Bft)
22.09.2011 13:00 20,6 C 16,8 C 0,6 UV-I 1,6 C 57 % 76 % 47 % 1019,3 hPa 0,0 l/m 4,4 km/h (1 Bft) 0,00 h 0,00 h 6,7 km/h (2 Bft)
22.09.2011 14:00 21,1 C 17,7 C 1,6 UV-I 3,2 C 57 % 71 % 88 % 1019,4 hPa 0,0 l/m 6,5 km/h (2 Bft) 0,77 h 0,00 h 9,0 km/h (2 Bft)
22.09.2011 15:00 21,9 C 18,4 C 1,4 UV-I 3,0 C 55 % 65 % 83 % 1019,5 hPa 0,0 l/m 5,5 km/h (1 Bft) 0,60 h 0,00 h 9,1 km/h (2 Bft)
22.09.2011 16:00 22,5 C 18,8 C 1,2 UV-I 2,8 C 53 % 63 % 76 % 1019,4 hPa 0,0 l/m 5,4 km/h (1 Bft) 0,50 h 0,00 h 7,6 km/h (2 Bft)
22.09.2011 17:00 22,6 C 18,3 C 0,4 UV-I 1,3 C 52 % 66 % 37 % 1019,5 hPa 0,0 l/m 4,4 km/h (1 Bft) 0,00 h 0,00 h 7,7 km/h (2 Bft)
22.09.2011 18:00 22,4 C 17,9 C 0,1 UV-I 0,6 C 53 % 68 % 17 % 1019,3 hPa 0,0 l/m 2,6 km/h (1 Bft) 0,17 h 0,00 h 4,1 km/h (1 Bft)
22.09.2011 19:00 22,0 C 16,2 C 0,0 UV-I 0,0 C 54 % 73 % 0 % 1019,2 hPa 0,0 l/m 0,4 km/h (0 Bft) 0,00 h 0,00 h 0,5 km/h (0 Bft)
22.09.2011 20:00 21,5 C 15,2 C 0,0 UV-I 0,0 C 55 % 78 % 0 % 1019,9 hPa 0,0 l/m 0,0 km/h (0 Bft) 0,00 h 0,00 h 0,0 km/h (0 Bft)
22.09.2011 21:00 21,3 C 14,6 C 0,0 UV-I 0,0 C 56 % 81 % 0 % 1020,2 hPa 0,0 l/m 0,0 km/h (0 Bft) 0,00 h 0,07 h 0,0 km/h (0 Bft)
22.09.2011 22:00 21,2 C 13,7 C 0,0 UV-I 0,0 C 57 % 84 % 0 % 1020,3 hPa 0,0 l/m 0,0 km/h (0 Bft) 0,00 h 0,07 h 0,0 km/h (0 Bft)
22.09.2011 23:00 21,1 C 13,2 C 0,0 UV-I 0,0 C 57 % 85 % 0 % 1020,3 hPa 0,0 l/m 0,0 km/h (0 Bft) 0,00 h 0,00 h 0,0 km/h (0 Bft)
23.09.2011 00:00 21,0 C 12,6 C 0,0 UV-I 0,0 C 58 % 86 % 0 % 1020,3 hPa 0,0 l/m 0,0 km/h (0 Bft) 0,00 h 0,07 h 0,0 km/h (0 Bft)
23.09.2011 01:00 20,9 C 12,0 C 0,0 UV-I 0,0 C 57 % 87 % 0 % 1020,1 hPa 0,0 l/m 0,0 km/h (0 Bft) 0,00 h 0,03 h 0,0 km/h (0 Bft)
23.09.2011 02:00 20,8 C 11,9 C 0,0 UV-I 0,0 C 57 % 88 % 0 % 1019,8 hPa 0,0 l/m 0,0 km/h (0 Bft) 0,00 h 0,03 h 0,0 km/h (0 Bft)
23.09.2011 03:00 20,8 C 12,0 C 0,0 UV-I 0,0 C 58 % 89 % 0 % 1019,6 hPa 0,0 l/m 0,0 km/h (0 Bft) 0,00 h 0,00 h 0,0 km/h (0 Bft)
23.09.2011 04:00 20,7 C 11,9 C 0,0 UV-I 0,0 C 58 % 88 % 0 % 1019,6 hPa 0,0 l/m 0,0 km/h (0 Bft) 0,00 h 0,17 h 0,0 km/h (0 Bft)
23.09.2011 05:00 20,6 C 11,0 C 0,0 UV-I 0,0 C 58 % 89 % 0 % 1019,4 hPa 0,0 l/m 0,0 km/h (0 Bft) 0,00 h 0,07 h 0,0 km/h (0 Bft)
23.09.2011 06:00 20,5 C 11,4 C 0,0 UV-I 0,0 C 58 % 91 % 0 % 1018,9 hPa 0,0 l/m 0,5 km/h (0 Bft) 0,00 h 0,13 h 2,1 km/h (1 Bft)
23.09.2011 07:00 20,4 C 11,7 C 0,0 UV-I 0,0 C 58 % 91 % 0 % 1019,1 hPa 0,0 l/m 1,3 km/h (1 Bft) 0,00 h 0,00 h 4,1 km/h (1 Bft)
23.09.2011 08:00 20,4 C 12,1 C 0,0 UV-I 0,0 C 58 % 91 % 0 % 1019,2 hPa 0,0 l/m 1,3 km/h (1 Bft) 0,00 h 0,07 h 2,8 km/h (1 Bft)
23.09.2011 09:00 20,5 C 12,9 C 0,1 UV-I 1,2 C 58 % 91 % 34 % 1019,6 hPa 0,0 l/m 2,5 km/h (1 Bft) 0,00 h 0,00 h 4,7 km/h (1 Bft)
23.09.2011 10:00 20,7 C 13,4 C 0,6 UV-I 2,3 C 58 % 90 % 59 % 1019,8 hPa 0,0 l/m 4,7 km/h (1 Bft) 0,20 h 0,00 h 7,5 km/h (2 Bft)
23.09.2011 11:00 20,8 C 15,2 C 1,7 UV-I 6,4 C 58 % 87 % 100 % 1019,9 hPa 0,0 l/m 4,2 km/h (1 Bft) 1,00 h 0,00 h 7,2 km/h (2 Bft)
23.09.2011 12:00 21,2 C 17,3 C 3,2 UV-I 6,7 C 58 % 79 % 100 % 1019,6 hPa 0,0 l/m 3,7 km/h (1 Bft) 1,00 h 0,00 h 6,6 km/h (2 Bft)
23.09.2011 13:00 22,0 C 18,9 C 4,0 UV-I 6,8 C 56 % 70 % 100 % 1019,5 hPa 0,0 l/m 3,9 km/h (1 Bft) 1,00 h 0,00 h 5,9 km/h (2 Bft)
23.09.2011 14:00 23,0 C 19,9 C 3,8 UV-I 6,2 C 54 % 63 % 100 % 1019,5 hPa 0,0 l/m 3,5 km/h (1 Bft) 1,00 h 0,00 h 6,1 km/h (2 Bft)
23.09.2011 15:00 23,7 C 20,4 C 2,2 UV-I 4,8 C 51 % 57 % 99 % 1019,3 hPa 0,0 l/m 2,8 km/h (1 Bft) 1,00 h 0,00 h 5,2 km/h (1 Bft)
23.09.2011 16:00 24,0 C 20,0 C 2,0 UV-I 3,6 C 50 % 58 % 90 % 1019,1 hPa 0,0 l/m 2,3 km/h (1 Bft) 0,70 h 0,00 h 4,1 km/h (1 Bft)
23.09.2011 17:00 24,2 C 20,6 C 1,0 UV-I 3,9 C 49 % 57 % 96 % 1018,8 hPa 0,0 l/m 0,9 km/h (0 Bft) 1,00 h 0,00 h 2,5 km/h (1 Bft)
23.09.2011 18:00 23,7 C 19,5 C 0,1 UV-I 0,7 C 50 % 59 % 19 % 1018,2 hPa 0,0 l/m 0,9 km/h (0 Bft) 0,13 h 0,00 h 1,6 km/h (1 Bft)
23.09.2011 19:00 23,2 C 17,5 C 0,0 UV-I 0,0 C 52 % 67 % 0 % 1018,1 hPa 0,0 l/m 0,0 km/h (0 Bft) 0,00 h 0,00 h 0,0 km/h (0 Bft)
23.09.2011 20:00 22,5 C 14,6 C 0,0 UV-I 0,0 C 54 % 75 % 0 % 1017,9 hPa 0,0 l/m 0,0 km/h (0 Bft) 0,00 h 0,00 h 0,0 km/h (0 Bft)
23.09.2011 21:00 22,0 C 12,9 C 0,0 UV-I 0,0 C 55 % 81 % 0 % 1018,0 hPa 0,0 l/m 0,0 km/h (0 Bft) 0,00 h 0,03 h 0,0 km/h (0 Bft)
23.09.2011 22:00 21,7 C 11,8 C 0,0 UV-I 0,0 C 56 % 85 % 0 % 1017,7 hPa 0,0 l/m 0,0 km/h (0 Bft) 0,00 h 0,03 h 0,0 km/h (0 Bft)
23.09.2011 23:00 21,5 C 11,1 C 0,0 UV-I 0,0 C 56 % 87 % 0 % 1017,8 hPa 0,0 l/m 0,0 km/h (0 Bft) 0,00 h 0,00 h 0,0 km/h (0 Bft)
24.09.2011 00:00 21,2 C 10,4 C 0,0 UV-I 0,0 C 56 % 88 % 0 % 1017,6 hPa 0,0 l/m 0,0 km/h (0 Bft) 0,00 h 0,07 h 0,0 km/h (0 Bft)
24.09.2011 01:00 21,1 C 9,8 C 0,0 UV-I 0,0 C 57 % 89 % 0 % 1017,4 hPa 0,0 l/m 0,0 km/h (0 Bft) 0,00 h 0,03 h 0,0 km/h (0 Bft)
24.09.2011 02:00 20,9 C 9,5 C 0,0 UV-I 0,0 C 57 % 90 % 0 % 1017,1 hPa 0,0 l/m 0,0 km/h (0 Bft) 0,00 h 0,00 h 0,0 km/h (0 Bft)
24.09.2011 03:00 20,8 C 9,2 C 0,0 UV-I 0,0 C 57 % 90 % 0 % 1016,8 hPa 0,0 l/m 0,0 km/h (0 Bft) 0,00 h 0,07 h 0,0 km/h (0 Bft)
24.09.2011 04:00 20,6 C 9,2 C 0,0 UV-I 0,0 C 56 % 91 % 0 % 1016,8 hPa 0,0 l/m 0,0 km/h (0 Bft) 0,00 h 0,00 h 0,1 km/h (0 Bft)
24.09.2011 05:00 20,5 C 9,4 C 0,0 UV-I 0,0 C 56 % 92 % 0 % 1016,6 hPa 0,0 l/m 0,8 km/h (0 Bft) 0,00 h 0,00 h 2,8 km/h (1 Bft)
24.09.2011 06:00 20,4 C 9,1 C 0,0 UV-I 0,0 C 56 % 92 % 0 % 1016,3 hPa 0,0 l/m 0,0 km/h (0 Bft) 0,00 h 0,03 h 0,2 km/h (0 Bft)
24.09.2011 07:00 20,2 C 9,0 C 0,0 UV-I 0,0 C 56 % 92 % 0 % 1016,2 hPa 0,0 l/m 0,3 km/h (0 Bft) 0,00 h 0,03 h 0,7 km/h (0 Bft)
24.09.2011 08:00 20,2 C 9,4 C 0,0 UV-I 0,7 C 56 % 92 % 19 % 1016,3 hPa 0,0 l/m 0,4 km/h (0 Bft) 0,07 h 0,00 h 1,1 km/h (1 Bft)
24.09.2011 09:00 20,3 C 11,0 C 0,3 UV-I 2,3 C 56 % 92 % 64 % 1016,2 hPa 0,0 l/m 1,1 km/h (1 Bft) 0,13 h 0,00 h 4,3 km/h (1 Bft)
24.09.2011 10:00 20,5 C 14,0 C 0,8 UV-I 4,6 C 56 % 89 % 100 % 1016,2 hPa 0,0 l/m 3,6 km/h (1 Bft) 1,00 h 0,00 h 6,7 km/h (2 Bft)
24.09.2011 11:00 20,8 C 16,9 C 1,4 UV-I 6,0 C 57 % 77 % 100 % 1016,0 hPa 0,0 l/m 5,6 km/h (1 Bft) 1,00 h 0,00 h 7,7 km/h (2 Bft)
24.09.2011 12:00 21,3 C 19,1 C 3,3 UV-I 5,6 C 56 % 67 % 100 % 1016,0 hPa 0,0 l/m 5,7 km/h (1 Bft) 1,00 h 0,00 h 8,3 km/h (2 Bft)
24.09.2011 13:00 22,1 C 20,8 C 3,8 UV-I 4,9 C 55 % 59 % 100 % 1015,8 hPa 0,0 l/m 5,6 km/h (1 Bft) 1,00 h 0,00 h 9,2 km/h (2 Bft)
24.09.2011 14:00 23,3 C 22,0 C 3,8 UV-I 4,8 C 52 % 55 % 100 % 1015,9 hPa 0,0 l/m 4,9 km/h (1 Bft) 1,00 h 0,00 h 6,5 km/h (2 Bft)
24.09.2011 15:00 24,3 C 23,3 C 4,0 UV-I 5,4 C 50 % 52 % 100 % 1015,8 hPa 0,0 l/m 3,2 km/h (1 Bft) 1,00 h 0,00 h 5,4 km/h (1 Bft)
24.09.2011 16:00 25,1 C 24,2 C 2,9 UV-I 5,4 C 48 % 50 % 100 % 1015,9 hPa 0,0 l/m 2,3 km/h (1 Bft) 1,00 h 0,00 h 5,0 km/h (1 Bft)
24.09.2011 17:00 25,1 C 23,9 C 0,9 UV-I 3,3 C 48 % 51 % 88 % 1015,6 hPa 0,0 l/m 1,5 km/h (1 Bft) 0,97 h 0,00 h 3,2 km/h (1 Bft)
24.09.2011 18:00 24,5 C 23,8 C 0,1 UV-I 0,4 C 49 % 54 % 13 % 1015,2 hPa 0,0 l/m 0,1 km/h (0 Bft) 0,03 h 0,00 h 0,0 km/h (0 Bft)
24.09.2011 19:00 23,9 C 20,6 C 0,0 UV-I 0,0 C 51 % 62 % 0 % 1015,3 hPa 0,0 l/m 0,0 km/h (0 Bft) 0,00 h 0,00 h 0,0 km/h (0 Bft)
24.09.2011 20:00 23,3 C 17,0 C 0,0 UV-I 0,0 C 53 % 72 % 0 % 1015,5 hPa 0,0 l/m 0,0 km/h (0 Bft) 0,00 h 0,03 h 0,0 km/h (0 Bft)
24.09.2011 21:00 22,7 C 15,0 C 0,0 UV-I 0,0 C 54 % 79 % 0 % 1015,8 hPa 0,0 l/m 0,0 km/h (0 Bft) 0,00 h 0,03 h 0,0 km/h (0 Bft)
24.09.2011 22:00 22,3 C 13,7 C 0,0 UV-I 0,0 C 55 % 83 % 0 % 1016,0 hPa 0,0 l/m 0,0 km/h (0 Bft) 0,00 h 0,00 h 0,0 km/h (0 Bft)
24.09.2011 23:00 22,1 C 12,7 C 0,0 UV-I 0,0 C 56 % 86 % 0 % 1016,3 hPa 0,0 l/m 0,0 km/h (0 Bft) 0,00 h 0,00 h 0,0 km/h (0 Bft)
25.09.2011 00:00 21,9 C 12,0 C 0,0 UV-I 0,0 C 56 % 87 % 0 % 1016,6 hPa 0,0 l/m 0,0 km/h (0 Bft) 0,00 h 0,03 h 0,0 km/h (0 Bft)
25.09.2011 01:00 21,7 C 11,4 C 0,0 UV-I 0,0 C 57 % 89 % 0 % 1016,6 hPa 0,0 l/m 0,0 km/h (0 Bft) 0,00 h 0,03 h 0,0 km/h (0 Bft)
25.09.2011 02:00 21,5 C 10,8 C 0,0 UV-I 0,0 C 57 % 89 % 0 % 1016,7 hPa 0,0 l/m 0,0 km/h (0 Bft) 0,00 h 0,03 h 0,0 km/h (0 Bft)
25.09.2011 03:00 21,3 C 10,4 C 0,0 UV-I 0,0 C 57 % 90 % 0 % 1016,9 hPa 0,0 l/m 0,0 km/h (0 Bft) 0,00 h 0,07 h 0,0 km/h (0 Bft)
25.09.2011 04:00 21,2 C 10,0 C 0,0 UV-I 0,0 C 57 % 91 % 0 % 1016,8 hPa 0,0 l/m 0,0 km/h (0 Bft) 0,00 h 0,07 h 0,0 km/h (0 Bft)
25.09.2011 05:00 21,1 C 9,7 C 0,0 UV-I 0,0 C 57 % 91 % 0 % 1016,8 hPa 0,0 l/m 0,0 km/h (0 Bft) 0,00 h 0,03 h 0,0 km/h (0 Bft)
25.09.2011 06:00 21,0 C 9,4 C 0,0 UV-I 0,0 C 57 % 91 % 0 % 1017,1 hPa 0,0 l/m 0,0 km/h (0 Bft) 0,00 h 0,00 h 0,0 km/h (0 Bft)
25.09.2011 07:00 20,8 C 9,2 C 0,0 UV-I 0,0 C 56 % 92 % 0 % 1017,5 hPa 0,0 l/m 0,0 km/h (0 Bft) 0,00 h 0,03 h 0,0 km/h (0 Bft)
25.09.2011 08:00 20,8 C 9,6 C 0,0 UV-I 0,8 C 57 % 92 % 24 % 1017,9 hPa 0,0 l/m 0,1 km/h (0 Bft) 0,27 h 0,03 h 0,6 km/h (0 Bft)
25.09.2011 09:00 20,9 C 11,7 C 0,2 UV-I 4,9 C 57 % 93 % 99 % 1018,2 hPa 0,0 l/m 1,9 km/h (1 Bft) 1,00 h 0,00 h 4,1 km/h (1 Bft)
25.09.2011 10:00 21,1 C 14,9 C 0,8 UV-I 7,0 C 57 % 92 % 100 % 1018,5 hPa 0,0 l/m 2,2 km/h (1 Bft) 1,00 h 0,00 h 4,3 km/h (1 Bft)
25.09.2011 11:00 21,3 C 18,3 C 1,5 UV-I 7,6 C 57 % 85 % 100 % 1018,8 hPa 0,0 l/m 1,8 km/h (1 Bft) 0,97 h 0,00 h 3,2 km/h (1 Bft)
25.09.2011 12:00 21,7 C 20,8 C 3,2 UV-I 7,1 C 57 % 72 % 100 % 1019,1 hPa 0,0 l/m 2,7 km/h (1 Bft) 1,00 h 0,00 h 5,1 km/h (1 Bft)
25.09.2011 13:00 22,6 C 22,4 C 4,0 UV-I 6,6 C 56 % 63 % 100 % 1019,4 hPa 0,0 l/m 3,0 km/h (1 Bft) 1,00 h 0,00 h 5,5 km/h (1 Bft)
25.09.2011 14:00 23,8 C 23,7 C 4,2 UV-I 6,1 C 53 % 58 % 100 % 1019,7 hPa 0,0 l/m 3,2 km/h (1 Bft) 1,00 h 0,00 h 5,5 km/h (1 Bft)
25.09.2011 15:00 24,7 C 24,4 C 3,7 UV-I 5,4 C 51 % 54 % 100 % 1019,8 hPa 0,0 l/m 3,7 km/h (1 Bft) 1,00 h 0,00 h 5,7 km/h (1 Bft)
25.09.2011 16:00 25,4 C 24,7 C 2,4 UV-I 4,9 C 50 % 54 % 100 % 1020,2 hPa 0,0 l/m 2,6 km/h (1 Bft) 1,00 h 0,00 h 5,1 km/h (1 Bft)
25.09.2011 17:00 25,3 C 24,4 C 0,8 UV-I 3,2 C 50 % 55 % 87 % 1019,8 hPa 0,0 l/m 1,3 km/h (1 Bft) 1,00 h 0,00 h 2,5 km/h (1 Bft)
25.09.2011 18:00 24,7 C 23,3 C 0,1 UV-I 0,5 C 51 % 59 % 15 % 1019,7 hPa 0,0 l/m 0,5 km/h (0 Bft) 0,17 h 0,00 h 1,0 km/h (0 Bft)
25.09.2011 19:00 24,2 C 20,9 C 0,0 UV-I 0,0 C 53 % 67 % 0 % 1019,6 hPa 0,0 l/m 0,0 km/h (0 Bft) 0,00 h 0,00 h 0,0 km/h (0 Bft)
25.09.2011 20:00 23,7 C 18,2 C 0,0 UV-I 0,0 C 54 % 75 % 0 % 1019,8 hPa 0,0 l/m 0,0 km/h (0 Bft) 0,00 h 0,00 h 0,0 km/h (0 Bft)
25.09.2011 21:00 23,3 C 16,7 C 0,0 UV-I 0,0 C 55 % 80 % 0 % 1019,9 hPa 0,0 l/m 0,1 km/h (0 Bft) 0,00 h 0,00 h 0,0 km/h (0 Bft)
25.09.2011 22:00 23,0 C 15,6 C 0,0 UV-I 0,0 C 56 % 84 % 0 % 1020,2 hPa 0,0 l/m 0,0 km/h (0 Bft) 0,00 h 0,03 h 0,0 km/h (0 Bft)
25.09.2011 23:00 22,7 C 14,9 C 0,0 UV-I 0,0 C 57 % 86 % 0 % 1020,5 hPa 0,0 l/m 0,1 km/h (0 Bft) 0,00 h 0,07 h 0,0 km/h (0 Bft)
Min-Datum _ 22.09.11 24.09.11 19.09.11 19.09.11 19.09.11 24.09.11 19.09.11 19.09.11 - 19.09.11 - - 19.09.11
_ Min-Zeit 08:06 03:56 00:00 00:00 17:10 16:22 00:00 01:24 - 00:56 - - 00:04
Minimum _ 19,5 C 8,9 C 0,0 UV-I 0,0 C 45 % 48 % 0 % 1004,7 hPa - 0,0 km/h (0 Bft) - - 0,0 km/h (0 Bft)
Max-Datum _ 25.09.11 25.09.11 19.09.11 25.09.11 22.09.11 25.09.11 19.09.11 20.09.11 19.09.11 19.09.11 19.09.11 19.09.11 21.09.11
_ Max-Zeit 16:48 16:18 13:24 11:16 02:24 10:08 09:56 13:04 04:56 13:00 09:36 03:56 14:58
Maximum _ 25,6 C 24,9 C 4,8 UV-I 8,1 C 59 % 94 % 100 % 1023,1 hPa 0,1 l/m 10,0 km/h
W (2 Bft)
0,03 h 0,03 h 31,2 km/h
S (5 Bft)
Durchschnitt _ 21,6 C 15,3 C 0,6 UV-I 1,3 C 55 % 78 % 27 % 1017,8 hPa #0,1 l/m 2,0 km/h (1 Bft) #35:00 h #2:04 h 3,5 km/h (1 Bft)
© 2012 W. Hausmann